Time;durP1;ratioP1;P1;durP2;ratioP2;P2;SDS_P1;SDS_P2;PMS_P1;PMS_P2;Temp;Humidity;BMP_temperature;BMP_pressure;BME280_temperature;BME280_humidity;BME280_pressure;Samples;Min_cycle;Max_cycle;Signal;HPM_P1;HPM_P2
2023/08/14 00:00:50;;;;;;;133.48;127.78;;;;;;;25.95;44.74;101497.03;5092094;28;20036;-75
2023/08/14 00:03:16;;;;;;;132.80;127.10;;;;;;;25.94;44.47;101491.84;5087984;28;20043;-75
2023/08/14 00:05:41;;;;;;;132.80;126.97;;;;;;;25.92;44.59;101494.13;5088389;28;20122;-75
2023/08/14 00:08:07;;;;;;;132.32;126.55;;;;;;;25.90;44.27;101492.50;5078517;28;20468;-75
2023/08/14 00:10:32;;;;;;;132.82;127.13;;;;;;;25.88;44.50;101480.16;5104593;28;20035;-75
2023/08/14 00:12:57;;;;;;;132.18;126.53;;;;;;;25.86;44.44;101494.31;5092368;28;20464;-75
2023/08/14 00:15:23;;;;;;;130.73;124.78;;;;;;;25.84;44.29;101491.00;5091582;28;20032;-75
2023/08/14 00:17:50;;;;;;;132.65;126.97;;;;;;;25.81;44.52;101491.69;5088891;28;20437;-75
2023/08/14 00:20:16;;;;;;;129.73;124.17;;;;;;;25.79;44.69;101493.16;5087362;28;20465;-75
2023/08/14 00:22:41;;;;;;;131.23;125.55;;;;;;;25.76;44.80;101494.63;5090065;28;20285;-75
2023/08/14 00:25:09;;;;;;;130.88;125.20;;;;;;;25.74;44.59;101479.47;5087094;28;20377;-76
2023/08/14 00:27:34;;;;;;;128.68;123.18;;;;;;;25.72;44.57;101479.78;5090313;28;20032;-76
2023/08/14 00:30:01;;;;;;;131.57;125.65;;;;;;;25.71;44.70;101475.41;5087869;28;20043;-75
2023/08/14 00:32:26;;;;;;;132.27;126.53;;;;;;;25.69;44.53;101472.16;5089418;28;20035;-76
2023/08/14 00:34:51;;;;;;;130.60;124.90;;;;;;;25.65;44.38;101477.53;5089558;28;20404;-74
2023/08/14 00:37:17;;;;;;;130.50;124.88;;;;;;;25.64;44.37;101480.63;5088130;28;20159;-75
2023/08/14 00:39:42;;;;;;;130.55;125.03;;;;;;;25.62;44.50;101477.38;5087173;28;20032;-76
2023/08/14 00:42:07;;;;;;;129.27;123.68;;;;;;;25.60;44.52;101472.19;5086214;28;20043;-76
2023/08/14 00:44:33;;;;;;;130.90;125.30;;;;;;;25.59;44.30;101475.25;5087319;28;20084;-75
2023/08/14 00:46:58;;;;;;;132.70;126.95;;;;;;;25.56;44.37;101471.19;5088196;28;20429;-76
2023/08/14 00:49:24;;;;;;;126.82;121.43;;;;;;;25.55;44.64;101465.97;5079397;28;20039;-76
2023/08/14 00:51:49;;;;;;;124.78;119.47;;;;;;;25.53;44.33;101466.31;5083925;28;20544;-77
2023/08/14 00:54:15;;;;;;;125.68;120.07;;;;;;;25.50;44.51;101466.16;5087395;28;20036;-76
2023/08/14 00:56:40;;;;;;;131.80;126.13;;;;;;;25.50;44.74;101471.69;5086739;28;20051;-76
2023/08/14 00:59:06;;;;;;;126.88;121.38;;;;;;;25.47;44.63;101462.09;5078115;28;20428;-76
2023/08/14 01:01:32;;;;;;;126.60;121.05;;;;;;;25.44;44.40;101459.97;5086581;28;20055;-76
2023/08/14 01:03:57;;;;;;;124.97;119.35;;;;;;;25.42;44.72;101465.81;5084720;28;20053;-77
2023/08/14 01:06:23;;;;;;;126.40;121.00;;;;;;;25.40;44.43;101464.53;5084093;28;20391;-77
2023/08/14 01:08:48;;;;;;;126.72;121.32;;;;;;;25.37;44.65;101460.44;5085156;28;20036;-77
2023/08/14 01:11:33;;;;;;;127.38;121.85;;;;;;;25.34;44.50;101454.78;5088991;28;20392;-77
2023/08/14 01:14:14;;;;;;;123.18;117.95;;;;;;;25.30;44.67;101454.63;5083987;28;20035;-77
2023/08/14 01:16:45;;;;;;;122.65;117.35;;;;;;;25.29;44.54;101455.75;5082951;28;20036;-77
2023/08/14 01:19:20;;;;;;;129.57;123.93;;;;;;;25.27;44.61;101452.50;5075725;28;20104;-76
2023/08/14 01:21:52;;;;;;;121.82;116.47;;;;;;;25.25;44.65;101454.78;5085871;28;20510;-77
2023/08/14 01:24:59;;;;;;;124.25;118.88;;;;;;;25.20;44.36;101443.84;5086822;28;20028;-76
2023/08/14 01:27:25;;;;;;;123.73;118.10;;;;;;;25.18;44.81;101449.72;5085647;28;20043;-76
2023/08/14 01:29:58;;;;;;;123.72;118.40;;;;;;;25.15;44.69;101450.34;5083889;28;20032;-76
2023/08/14 01:32:24;;;;;;;120.28;115.07;;;;;;;25.14;44.76;101450.66;5078974;28;20035;-76
2023/08/14 01:34:51;;;;;;;122.45;117.10;;;;;;;25.12;44.63;101441.88;5083807;28;20058;-76
2023/08/14 01:37:24;;;;;;;125.80;120.18;;;;;;;25.10;44.58;101441.38;5085150;28;20028;-76
2023/08/14 01:40:06;;;;;;;122.00;116.40;;;;;;;25.07;44.31;101436.50;5082309;28;20035;-76
2023/08/14 01:42:37;;;;;;;123.57;117.90;;;;;;;25.05;44.69;101432.13;5082413;28;20134;-76
2023/08/14 01:45:19;;;;;;;121.35;116.10;;;;;;;25.03;44.49;101428.88;5083725;28;20035;-78
2023/08/14 01:47:46;;;;;;;120.38;115.07;;;;;;;25.01;44.60;101425.63;5082128;28;20086;-78
2023/08/14 01:50:14;;;;;;;125.85;120.45;;;;;;;25.01;44.41;101411.00;5088885;28;20037;-79
2023/08/14 01:52:40;;;;;;;128.65;123.15;;;;;;;24.98;44.47;101411.66;5082166;28;20111;-79
2023/08/14 01:55:05;;;;;;;122.07;116.78;;;;;;;24.96;44.51;101411.16;5086331;28;20123;-79
2023/08/14 01:57:32;;;;;;;124.32;118.85;;;;;;;24.94;44.28;101400.41;5085726;28;20032;-79
2023/08/14 01:59:58;;;;;;;123.57;118.28;;;;;;;24.93;44.40;101404.31;5085224;28;20078;-80
2023/08/14 02:02:24;;;;;;;122.32;116.82;;;;;;;24.92;44.58;101402.72;5082240;28;20054;-80
2023/08/14 02:04:49;;;;;;;121.60;116.30;;;;;;;24.90;44.50;101393.94;5088639;28;20044;-78
2023/08/14 02:07:15;;;;;;;123.43;118.03;;;;;;;24.89;44.48;101397.00;5084776;28;20036;-79
2023/08/14 02:09:40;;;;;;;121.45;116.15;;;;;;;24.88;44.58;101410.00;5087533;28;20035;-81
2023/08/14 02:12:06;;;;;;;130.38;124.78;;;;;;;24.86;44.66;101400.41;5052957;28;20044;-78
2023/08/14 02:14:31;;;;;;;121.30;116.13;;;;;;;24.83;44.33;101399.13;5089058;28;20487;-79
2023/08/14 02:16:57;;;;;;;117.85;112.70;;;;;;;24.82;44.48;101405.75;5089828;28;20028;-80
2023/08/14 02:19:22;;;;;;;121.53;116.20;;;;;;;24.79;44.67;101407.22;5088748;28;20259;-78
2023/08/14 02:21:48;;;;;;;120.40;114.68;;;;;;;24.77;44.62;101404.00;5087867;28;20031;-78
2023/08/14 02:24:14;;;;;;;119.93;114.63;;;;;;;24.76;44.50;101398.78;5083441;28;20036;-78
2023/08/14 02:26:39;;;;;;;120.55;115.38;;;;;;;24.75;44.22;101397.16;5077092;28;20036;-79
2023/08/14 02:29:05;;;;;;;120.85;115.63;;;;;;;24.73;44.59;101396.66;5079119;28;20526;-78
2023/08/14 02:31:30;;;;;;;117.95;112.85;;;;;;;24.71;44.36;101398.94;5080497;28;20032;-79
2023/08/14 02:34:01;;;;;;;121.43;116.22;;;;;;;24.70;44.74;101389.03;5080730;28;20454;-79
2023/08/14 02:36:27;;;;;;;117.95;112.82;;;;;;;24.69;44.63;101395.66;5087511;28;20125;-78
2023/08/14 02:38:53;;;;;;;123.68;118.38;;;;;;;24.67;44.27;101397.94;5085413;28;20028;-80
2023/08/14 02:41:18;;;;;;;119.18;113.97;;;;;;;24.65;44.60;101392.75;5093640;28;20067;-80
2023/08/14 02:43:44;;;;;;;116.95;111.65;;;;;;;24.61;44.30;101387.03;5085282;28;20410;-79
2023/08/14 02:46:09;;;;;;;116.38;111.18;;;;;;;24.59;44.28;101381.06;5088130;28;20036;-79
2023/08/14 02:48:34;;;;;;;115.90;110.90;;;;;;;24.58;44.28;101384.94;5085091;28;20158;-79
2023/08/14 02:51:00;;;;;;;118.63;113.50;;;;;;;24.56;44.69;101384.44;5077569;28;20050;-79
2023/08/14 02:53:26;;;;;;;118.68;113.50;;;;;;;24.55;44.75;101382.00;5089364;28;20141;-79
2023/08/14 02:55:51;;;;;;;122.03;116.72;;;;;;;24.53;44.13;101376.81;5084410;28;20028;-78
2023/08/14 02:58:18;;;;;;;119.47;114.28;;;;;;;24.51;44.42;101373.53;5084368;28;20039;-78
2023/08/14 03:00:47;;;;;;;116.90;111.60;;;;;;;24.50;44.31;101376.63;5085926;28;20031;-77
2023/08/14 03:03:13;;;;;;;113.50;108.47;;;;;;;24.47;44.82;101369.81;5083043;28;20051;-78
2023/08/14 03:05:39;;;;;;;115.00;109.82;;;;;;;24.46;44.20;101375.66;5087425;28;20123;-77
2023/08/14 03:08:05;;;;;;;116.97;111.75;;;;;;;24.43;44.70;101371.56;5085778;28;20117;-78
2023/08/14 03:10:30;;;;;;;117.05;111.75;;;;;;;24.42;44.34;101375.47;5087174;28;20036;-78
2023/08/14 03:12:57;;;;;;;115.72;110.10;;;;;;;24.40;44.38;101366.69;5087504;28;20030;-79
2023/08/14 03:15:22;;;;;;;116.20;111.07;;;;;;;24.38;44.24;101374.47;5086308;28;20032;-78
2023/08/14 03:17:48;;;;;;;114.38;109.30;;;;;;;24.36;44.60;101368.44;5085333;28;20047;-79
2023/08/14 03:20:14;;;;;;;115.38;110.28;;;;;;;24.35;44.76;101377.88;5090486;28;20036;-78
2023/08/14 03:22:40;;;;;;;113.75;108.72;;;;;;;24.34;44.61;101370.69;5089912;28;20397;-79
2023/08/14 03:25:05;;;;;;;111.80;107.00;;;;;;;24.31;44.25;101374.91;5088248;28;20173;-78
2023/08/14 03:27:31;;;;;;;115.15;110.10;;;;;;;24.29;44.60;101377.22;5081883;28;20028;-80
2023/08/14 03:29:56;;;;;;;115.85;110.80;;;;;;;24.28;44.29;101377.53;5087489;28;20078;-79
2023/08/14 03:32:22;;;;;;;116.15;111.00;;;;;;;24.26;44.61;101375.06;5081550;28;20490;-79
2023/08/14 03:34:47;;;;;;;114.43;109.35;;;;;;;24.24;44.57;101373.75;5087777;28;20036;-79
2023/08/14 03:37:12;;;;;;;113.90;108.90;;;;;;;24.23;44.39;101377.66;5087036;28;21022;-80
2023/08/14 03:39:38;;;;;;;112.35;107.43;;;;;;;24.20;44.32;101379.13;5082754;28;20047;-79
2023/08/14 03:42:03;;;;;;;114.60;109.55;;;;;;;24.19;44.37;101385.75;5089303;28;20089;-78
2023/08/14 03:44:29;;;;;;;113.40;108.43;;;;;;;24.16;44.42;101386.41;5087260;28;20040;-82
2023/08/14 03:46:54;;;;;;;112.38;107.45;;;;;;;24.14;44.45;101375.69;5088134;28;20035;-80
2023/08/14 03:49:19;;;;;;;111.85;106.75;;;;;;;24.13;44.48;101379.56;5085685;28;20036;-78
2023/08/14 03:51:45;;;;;;;113.07;107.97;;;;;;;24.10;44.24;101380.22;5086144;28;20032;-79
2023/08/14 03:54:10;;;;;;;110.20;105.30;;;;;;;24.09;44.77;101377.75;5079238;28;20047;-79
2023/08/14 03:56:36;;;;;;;114.10;109.10;;;;;;;24.07;44.27;101385.56;5088586;28;20499;-78
2023/08/14 03:59:01;;;;;;;114.25;109.20;;;;;;;24.06;44.77;101395.78;5085163;28;20035;-80
2023/08/14 04:01:26;;;;;;;114.88;109.78;;;;;;;24.04;44.03;101381.50;5074870;28;20032;-78
2023/08/14 04:03:52;;;;;;;114.85;109.55;;;;;;;24.03;44.64;101381.81;5083954;28;20048;-79
2023/08/14 04:06:19;;;;;;;111.93;107.03;;;;;;;24.01;44.81;101375.78;5088754;28;20071;-78
2023/08/14 04:08:44;;;;;;;111.57;106.70;;;;;;;23.98;44.37;101369.78;5087156;28;20445;-79
2023/08/14 04:11:11;;;;;;;112.43;107.47;;;;;;;23.98;44.69;101369.78;5086932;28;20032;-79
2023/08/14 04:13:36;;;;;;;108.65;103.85;;;;;;;23.97;44.51;101379.19;5083934;28;20032;-79
2023/08/14 04:16:03;;;;;;;110.85;105.95;;;;;;;23.95;44.53;101366.84;5088681;28;20055;-78
2023/08/14 04:18:29;;;;;;;111.35;106.43;;;;;;;23.94;44.29;101365.22;5087353;28;20032;-80
2023/08/14 04:20:55;;;;;;;109.43;104.38;;;;;;;23.92;44.36;101364.72;5085593;28;20028;-78
2023/08/14 04:23:22;;;;;;;111.07;106.18;;;;;;;23.91;44.53;101369.44;5086596;28;20039;-79
2023/08/14 04:25:48;;;;;;;112.65;107.55;;;;;;;23.89;44.74;101368.09;5088572;28;20028;-78
2023/08/14 04:28:13;;;;;;;107.53;102.85;;;;;;;23.88;44.37;101360.97;5075488;28;20028;-78
2023/08/14 04:30:39;;;;;;;114.97;109.88;;;;;;;23.85;44.27;101350.56;5082676;28;20056;-78
2023/08/14 04:33:04;;;;;;;110.00;105.13;;;;;;;23.84;44.61;101348.94;5084326;28;20032;-78
2023/08/14 04:35:29;;;;;;;108.57;103.78;;;;;;;23.82;44.65;101341.00;5087294;28;20068;-78
2023/08/14 04:37:55;;;;;;;110.25;105.25;;;;;;;23.81;44.19;101344.06;5087116;28;20040;-79
2023/08/14 04:40:20;;;;;;;109.13;104.28;;;;;;;23.80;44.23;101339.69;5084395;28;20040;-79
2023/08/14 04:42:46;;;;;;;108.07;103.15;;;;;;;23.78;44.24;101347.44;5084682;28;20040;-79
2023/08/14 04:45:11;;;;;;;107.55;102.82;;;;;;;23.75;44.28;101341.44;5087859;28;20049;-79
2023/08/14 04:47:37;;;;;;;108.90;104.15;;;;;;;23.73;44.44;101346.44;5077066;28;20032;-77
2023/08/14 04:50:03;;;;;;;111.55;106.65;;;;;;;23.72;44.75;101342.06;5111189;28;20110;-78
2023/08/14 04:52:28;;;;;;;109.30;104.50;;;;;;;23.71;44.36;101334.06;5077781;28;20063;-77
2023/08/14 04:54:53;;;;;;;108.65;103.75;;;;;;;23.69;44.21;101330.84;5087821;28;20111;-76
2023/08/14 04:57:19;;;;;;;111.05;106.15;;;;;;;23.68;44.42;101318.16;5087962;28;20152;-78
2023/08/14 04:59:44;;;;;;;107.95;103.20;;;;;;;23.67;44.35;101313.78;5079634;28;20032;-79
2023/08/14 05:02:10;;;;;;;111.75;106.85;;;;;;;23.65;44.54;101316.06;5084766;28;20039;-78
2023/08/14 05:04:35;;;;;;;109.43;104.55;;;;;;;23.63;44.80;101318.31;5078322;28;20044;-78
2023/08/14 05:07:01;;;;;;;107.47;102.57;;;;;;;23.62;44.53;101311.19;5075293;28;20036;-78
2023/08/14 05:09:26;;;;;;;107.07;102.38;;;;;;;23.61;44.51;101326.91;5091261;28;20059;-79
2023/08/14 05:11:52;;;;;;;107.82;103.10;;;;;;;23.60;44.32;101329.97;5087679;28;20078;-79
2023/08/14 05:14:18;;;;;;;106.65;101.90;;;;;;;23.59;44.58;101328.38;5085767;28;20058;-79
2023/08/14 05:16:47;;;;;;;108.65;103.75;;;;;;;23.58;44.55;101324.78;5085907;28;20101;-78
2023/08/14 05:19:12;;;;;;;;;;;;;;;23.51;44.74;101325.25;5086375;28;20479;-79
2023/08/14 05:21:38;;;;;;;106.63;101.82;;;;;;;23.53;44.51;101328.47;5084306;28;19923;-78
2023/08/14 05:24:03;;;;;;;104.93;100.13;;;;;;;23.51;44.81;101322.47;5083617;28;20032;-78
2023/08/14 05:26:29;;;;;;;105.05;100.22;;;;;;;23.50;44.61;101323.59;5084929;28;20028;-79
2023/08/14 05:28:54;;;;;;;104.22;99.65;;;;;;;23.49;44.48;101323.94;5089865;28;20040;-78
2023/08/14 05:31:19;;;;;;;105.90;101.20;;;;;;;23.47;44.40;101329.75;5061308;28;20040;-78
2023/08/14 05:33:45;;;;;;;105.78;100.88;;;;;;;23.47;44.37;101331.69;5084043;28;20576;-78
2023/08/14 05:36:11;;;;;;;109.45;104.63;;;;;;;23.45;44.58;101328.44;5085456;28;20039;-77
2023/08/14 05:38:36;;;;;;;107.45;102.63;;;;;;;23.44;44.89;101332.34;5089998;28;20036;-78
2023/08/14 05:41:01;;;;;;;104.97;100.28;;;;;;;23.43;44.52;101345.28;5088566;28;20038;-77
2023/08/14 05:43:27;;;;;;;107.10;102.25;;;;;;;23.43;44.89;101341.72;5082818;28;20044;-77
2023/08/14 05:45:52;;;;;;;106.88;102.07;;;;;;;23.42;44.64;101340.09;5081180;28;20037;-78
2023/08/14 05:48:18;;;;;;;106.85;101.97;;;;;;;23.40;44.72;101334.88;5081590;28;20177;-77
2023/08/14 05:50:43;;;;;;;106.93;102.22;;;;;;;23.40;44.68;101337.66;5090565;28;20063;-78
2023/08/14 05:53:09;;;;;;;106.68;101.93;;;;;;;23.39;44.64;101344.31;5088743;28;20085;-80
2023/08/14 05:55:39;;;;;;;108.78;103.95;;;;;;;23.39;44.80;101351.75;5062683;28;20692;-80
2023/08/14 05:58:08;;;;;;;104.90;99.97;;;;;;;23.38;44.80;101355.63;5090563;28;20051;-78
2023/08/14 06:00:35;;;;;;;104.95;100.28;;;;;;;23.36;44.67;101358.72;5088393;28;20032;-78
2023/08/14 06:03:02;;;;;;;102.95;97.95;;;;;;;23.35;44.71;101361.78;5084064;28;20036;-79
2023/08/14 06:05:27;;;;;;;103.70;98.97;;;;;;;23.34;44.93;101360.97;5088187;28;20644;-77
2023/08/14 06:07:54;;;;;;;103.47;98.97;;;;;;;23.33;45.02;101364.84;5082942;28;20044;-78
2023/08/14 06:10:20;;;;;;;103.57;98.88;;;;;;;23.32;44.61;101361.28;5089316;28;20085;-79
2023/08/14 06:12:48;;;;;;;107.18;102.43;;;;;;;23.32;45.03;101357.72;5086322;28;20044;-79
2023/08/14 06:15:14;;;;;;;107.65;102.57;;;;;;;23.29;44.90;101350.88;5092867;28;20100;-77
2023/08/14 06:17:40;;;;;;;106.22;101.53;;;;;;;23.30;45.16;101355.25;5080657;28;20059;-79
2023/08/14 06:20:07;;;;;;;103.30;98.68;;;;;;;23.30;44.78;101352.50;5086763;28;20035;-78
2023/08/14 06:22:37;;;;;;;109.07;104.18;;;;;;;23.30;44.74;101348.94;5089261;28;20043;-80
2023/08/14 06:25:02;;;;;;;102.55;97.97;;;;;;;23.28;44.80;101343.75;5089528;28;20028;-79
2023/08/14 06:27:28;;;;;;;103.53;98.82;;;;;;;23.28;45.03;101343.75;5093664;28;20054;-80
2023/08/14 06:29:53;;;;;;;103.32;98.63;;;;;;;23.28;44.63;101337.41;5086582;28;20111;-79
2023/08/14 06:32:18;;;;;;;103.25;98.45;;;;;;;23.26;44.79;101336.94;5086488;28;20055;-79
2023/08/14 06:34:44;;;;;;;105.93;101.15;;;;;;;23.27;44.83;101341.28;5084103;28;20048;-82
2023/08/14 06:37:10;;;;;;;103.03;98.40;;;;;;;23.25;44.70;101338.03;5081108;28;20039;-81
2023/08/14 06:39:35;;;;;;;102.70;98.00;;;;;;;23.25;44.87;101341.59;5085837;28;20400;-82
2023/08/14 06:42:00;;;;;;;103.47;98.78;;;;;;;23.25;44.95;101333.34;5088314;28;20430;-77
2023/08/14 06:44:26;;;;;;;104.70;99.80;;;;;;;23.24;44.99;101334.47;5087023;28;20044;-79
2023/08/14 06:46:51;;;;;;;104.95;99.85;;;;;;;23.25;45.08;101340.78;5065317;28;20422;-82
2023/08/14 06:49:17;;;;;;;105.20;100.35;;;;;;;23.24;44.88;101328.16;5083542;28;20040;-82
2023/08/14 06:51:42;;;;;;;105.63;100.82;;;;;;;23.25;44.76;101325.06;5087679;28;20036;-81
2023/08/14 06:54:08;;;;;;;108.65;103.65;;;;;;;23.25;45.07;101336.09;5082554;28;20582;-82
2023/08/14 06:56:33;;;;;;;104.38;99.78;;;;;;;23.26;45.01;101339.69;5090566;28;20066;-81
2023/08/14 06:58:58;;;;;;;105.63;100.63;;;;;;;23.27;45.18;101330.28;5087880;28;20135;-82
2023/08/14 07:01:24;;;;;;;104.65;99.95;;;;;;;23.27;45.08;101324.75;5084223;28;20043;-83
2023/08/14 07:03:49;;;;;;;105.40;100.65;;;;;;;23.26;44.99;101323.94;5077606;28;20078;-81
2023/08/14 07:06:15;;;;;;;104.35;99.53;;;;;;;23.26;44.95;101329.47;5081478;28;20060;-82
2023/08/14 07:08:40;;;;;;;103.25;98.47;;;;;;;23.26;45.06;101337.72;5081916;28;20871;-83
2023/08/14 07:11:06;;;;;;;102.65;98.00;;;;;;;23.26;44.76;101329.47;5066850;28;20051;-82
2023/08/14 07:13:31;;;;;;;104.00;99.40;;;;;;;23.26;45.17;101325.91;5090568;28;20124;-82
2023/08/14 07:15:57;;;;;;;105.50;100.32;;;;;;;23.27;44.82;101335.78;5088671;28;20313;-82
2023/08/14 07:18:22;;;;;;;107.25;102.45;;;;;;;23.26;45.12;101336.94;5080701;28;20518;-82
2023/08/14 07:20:48;;;;;;;107.07;102.38;;;;;;;23.26;45.12;101337.72;5085265;28;20040;-82
2023/08/14 07:23:19;;;;;;;104.25;99.57;;;;;;;23.28;44.99;101343.75;5089224;28;20111;-82
2023/08/14 07:25:46;;;;;;;104.30;99.55;;;;;;;23.29;45.35;101355.59;5086342;28;20111;-83
2023/08/14 07:28:12;;;;;;;101.88;97.35;;;;;;;23.29;45.26;101359.16;5091808;28;20043;-82
2023/08/14 07:30:38;;;;;;;101.43;96.97;;;;;;;23.32;45.23;101361.28;5086059;28;20040;-82
2023/08/14 07:33:04;;;;;;;103.30;98.50;;;;;;;23.33;44.96;101353.81;5081915;28;20053;-82
2023/08/14 07:35:30;;;;;;;102.72;98.10;;;;;;;23.35;44.95;101342.47;5086842;28;20039;-83
2023/08/14 07:37:56;;;;;;;105.35;100.55;;;;;;;23.36;45.25;101349.59;5089318;28;20048;-83
2023/08/14 07:40:21;;;;;;;101.82;97.22;;;;;;;23.36;45.00;101350.44;5070948;28;20047;-81
2023/08/14 07:42:46;;;;;;;106.18;101.38;;;;;;;23.37;45.22;101354.00;5086806;28;20107;-82
2023/08/14 07:45:12;;;;;;;105.63;100.78;;;;;;;23.38;45.27;101344.59;5091074;28;20388;-83
2023/08/14 07:47:37;;;;;;;102.18;97.40;;;;;;;23.39;45.07;101349.81;5069815;28;20391;-82
2023/08/14 07:50:03;;;;;;;104.68;99.63;;;;;;;23.40;45.28;101339.59;5085989;28;20032;-82
2023/08/14 07:52:30;;;;;;;103.60;99.00;;;;;;;23.41;45.44;101342.03;5084531;28;22118;-81
2023/08/14 07:54:57;;;;;;;102.50;97.75;;;;;;;23.42;45.71;101340.09;5085229;28;20391;-81
2023/08/14 07:57:23;;;;;;;104.45;99.75;;;;;;;23.43;45.66;101328.75;5078606;28;20036;-82
2023/08/14 07:59:49;;;;;;;105.40;100.45;;;;;;;23.46;45.46;101335.56;5088507;28;20471;-81
2023/08/14 08:02:14;;;;;;;104.68;99.88;;;;;;;23.47;45.47;101329.75;5087655;28;20062;-82
2023/08/14 08:04:40;;;;;;;102.65;97.95;;;;;;;23.50;45.78;101333.81;5080409;28;20032;-80
2023/08/14 08:07:05;;;;;;;101.28;96.78;;;;;;;23.51;45.91;101330.75;5071433;28;20059;-82
2023/08/14 08:09:31;;;;;;;101.18;96.47;;;;;;;23.55;45.96;101325.41;5083018;28;20032;-81
2023/08/14 08:11:57;;;;;;;104.93;100.20;;;;;;;23.57;45.55;101320.41;5082280;28;20039;-80
2023/08/14 08:14:22;;;;;;;103.97;98.78;;;;;;;23.62;45.83;101316.69;5083827;28;20032;-80
2023/08/14 08:16:49;;;;;;;106.47;101.68;;;;;;;23.65;45.69;101316.84;5089985;28;20040;-81
2023/08/14 08:19:15;;;;;;;103.55;98.88;;;;;;;23.69;46.27;101309.59;5067772;28;22459;-81
2023/08/14 08:21:41;;;;;;;107.18;102.28;;;;;;;23.73;46.38;101320.81;5085549;28;20032;-81
2023/08/14 08:24:07;;;;;;;107.70;102.70;;;;;;;23.78;46.12;101317.13;5086613;28;20092;-80
2023/08/14 08:26:32;;;;;;;104.45;99.68;;;;;;;23.81;46.52;101311.75;5085145;28;20029;-80
2023/08/14 08:28:58;;;;;;;107.07;101.93;;;;;;;23.84;46.05;101313.91;5083390;28;20040;-80
2023/08/14 08:31:23;;;;;;;103.53;98.70;;;;;;;23.88;46.64;101308.56;5088431;28;20040;-80
2023/08/14 08:33:49;;;;;;;106.10;101.10;;;;;;;23.92;46.53;101310.34;5086161;28;20373;-81
2023/08/14 08:36:18;;;;;;;104.30;99.68;;;;;;;23.97;46.56;101306.66;5087034;28;20482;-79
2023/08/14 08:38:46;;;;;;;;;;;;;;;23.96;46.97;101311.34;5085967;28;20044;-77
2023/08/14 08:41:24;;;;;;;103.15;98.55;;;;;;;24.05;46.65;101307.81;5086180;28;19920;-77
2023/08/14 08:44:15;;;;;;;107.05;101.20;;;;;;;24.09;46.64;101309.59;5086676;28;20388;-77
2023/08/14 08:47:10;;;;;;;105.97;101.30;;;;;;;24.14;47.18;101317.75;5082655;28;20050;-78
2023/08/14 08:49:36;;;;;;;106.82;102.05;;;;;;;24.23;46.98;101308.66;5078742;28;20047;-77
2023/08/14 08:52:03;;;;;;;110.78;105.90;;;;;;;24.28;46.84;101308.50;5087511;28;20043;-80
2023/08/14 08:54:30;;;;;;;112.07;107.05;;;;;;;24.35;46.86;101309.66;5083577;28;20149;-76
2023/08/14 08:56:59;;;;;;;113.50;108.50;;;;;;;24.41;46.79;101302.03;5085707;28;20032;-78
2023/08/14 08:59:26;;;;;;;110.40;105.30;;;;;;;24.47;46.90;101309.06;5087530;28;20127;-76
2023/08/14 09:01:52;;;;;;;113.78;108.63;;;;;;;24.53;47.25;101316.03;5085561;28;20144;-79
2023/08/14 09:04:18;;;;;;;113.22;108.28;;;;;;;24.60;47.21;101323.84;5079106;28;20101;-76
2023/08/14 09:06:44;;;;;;;112.45;107.55;;;;;;;24.69;47.00;101318.31;5086765;28;20039;-80
2023/08/14 09:09:12;;;;;;;113.97;108.88;;;;;;;24.74;47.60;101321.72;5088210;28;20637;-80
2023/08/14 09:11:38;;;;;;;116.07;110.93;;;;;;;24.81;47.17;101324.81;5082302;28;20067;-80
2023/08/14 09:14:04;;;;;;;116.68;111.63;;;;;;;24.90;47.62;101324.84;5087896;28;20059;-79
2023/08/14 09:16:30;;;;;;;114.70;109.72;;;;;;;24.97;47.62;101322.41;5083182;28;20545;-79
2023/08/14 09:18:59;;;;;;;121.00;115.65;;;;;;;25.05;47.48;101321.56;5077205;28;20032;-80
2023/08/14 09:21:26;;;;;;;117.15;111.95;;;;;;;25.13;47.48;101316.38;5086811;28;20102;-80
2023/08/14 09:23:52;;;;;;;116.90;111.78;;;;;;;25.20;47.34;101323.06;5083786;28;20101;-79
2023/08/14 09:26:18;;;;;;;118.45;113.35;;;;;;;25.26;47.35;101316.19;5087014;28;20618;-79
2023/08/14 09:28:44;;;;;;;116.82;111.45;;;;;;;25.34;47.82;101316.50;5085673;28;20107;-80
2023/08/14 09:31:11;;;;;;;115.43;110.32;;;;;;;25.40;47.66;101318.78;5081281;28;20135;-80
2023/08/14 09:33:38;;;;;;;124.30;119.00;;;;;;;25.48;47.63;101311.59;5084946;28;20292;-79
2023/08/14 09:36:03;;;;;;;120.75;115.35;;;;;;;25.55;47.52;101311.06;5083591;28;20081;-79
2023/08/14 09:38:31;;;;;;;120.53;115.13;;;;;;;25.63;47.92;101313.00;5081092;28;20392;-79
2023/08/14 09:41:00;;;;;;;123.38;118.07;;;;;;;25.71;47.84;101309.41;5088248;28;20093;-78
2023/08/14 09:43:27;;;;;;;122.50;117.22;;;;;;;25.79;47.86;101302.19;5086081;28;20388;-80
2023/08/14 09:45:55;;;;;;;129.65;123.95;;;;;;;25.85;47.63;101303.66;5092561;28;20088;-81
2023/08/14 09:48:22;;;;;;;124.80;119.50;;;;;;;25.92;47.87;101306.72;5088383;28;20108;-80
2023/08/14 09:50:51;;;;;;;128.38;122.97;;;;;;;26.01;47.65;101310.25;5092271;28;20032;-79
2023/08/14 09:53:17;;;;;;;128.70;123.10;;;;;;;26.06;47.85;101304.53;5086470;28;20037;-80
2023/08/14 09:55:43;;;;;;;129.80;123.90;;;;;;;26.14;48.14;101299.28;5091092;28;20385;-79
2023/08/14 09:58:09;;;;;;;126.50;120.82;;;;;;;26.20;47.83;101295.97;5089846;28;20024;-80
2023/08/14 10:00:37;;;;;;;129.15;123.45;;;;;;;26.27;47.66;101290.72;5070971;28;20093;-79
2023/08/14 10:03:07;;;;;;;129.63;123.93;;;;;;;26.34;48.00;101291.00;5091600;28;20032;-76
2023/08/14 10:05:33;;;;;;;129.48;123.85;;;;;;;26.40;47.77;101283.28;5091693;28;20090;-77
2023/08/14 10:08:00;;;;;;;131.02;125.30;;;;;;;26.46;47.65;101278.34;5092490;28;20028;-81
2023/08/14 10:10:30;;;;;;;131.55;125.95;;;;;;;26.53;47.53;101275.91;5091473;28;20040;-81
2023/08/14 10:13:05;;;;;;;133.60;127.93;;;;;;;26.60;47.78;101269.81;5091003;28;20070;-79
2023/08/14 10:15:51;;;;;;;134.98;129.20;;;;;;;26.63;47.91;101264.41;5090526;28;20414;-81
2023/08/14 10:18:17;;;;;;;131.50;125.55;;;;;;;26.70;47.89;101261.91;5084994;28;20675;-79
2023/08/14 10:20:45;;;;;;;136.90;131.10;;;;;;;26.76;47.53;101254.16;5088918;28;20042;-80
2023/08/14 10:23:13;;;;;;;137.73;131.75;;;;;;;26.83;47.70;101261.94;5084800;28;20032;-80
2023/08/14 10:25:39;;;;;;;133.60;127.63;;;;;;;26.89;47.54;101255.06;5090344;28;20024;-79
2023/08/14 10:28:09;;;;;;;132.23;126.53;;;;;;;26.96;47.56;101252.50;5087243;28;20392;-79
2023/08/14 10:30:36;;;;;;;141.23;135.23;;;;;;;27.01;47.62;101243.19;5086927;28;20137;-80
2023/08/14 10:33:02;;;;;;;138.23;132.23;;;;;;;27.07;47.36;101245.41;5085308;28;20495;-78
2023/08/14 10:35:28;;;;;;;138.45;132.25;;;;;;;27.12;47.36;101245.19;5081575;28;20101;-80
2023/08/14 10:37:53;;;;;;;136.95;131.10;;;;;;;27.18;47.57;101251.34;5085846;28;20114;-79
2023/08/14 10:40:23;;;;;;;139.50;133.18;;;;;;;27.24;47.38;101243.59;5088818;28;20036;-79
2023/08/14 10:42:57;;;;;;;144.57;138.48;;;;;;;27.29;47.63;101241.44;5089652;28;20452;-80
2023/08/14 10:45:26;;;;;;;141.45;135.52;;;;;;;27.36;47.44;101243.63;5087173;28;20028;-79
2023/08/14 10:47:53;;;;;;;146.60;140.15;;;;;;;27.40;47.44;101239.03;5087120;28;20648;-79
2023/08/14 10:50:21;;;;;;;139.38;133.45;;;;;;;27.47;47.46;101244.81;5089215;28;20043;-80
2023/08/14 10:52:48;;;;;;;140.63;134.70;;;;;;;27.50;47.63;101244.09;5089430;28;20048;-79
2023/08/14 10:55:22;;;;;;;145.88;139.70;;;;;;;27.57;47.34;101249.91;5087873;28;20023;-80